Time;durP1;ratioP1;P1;durP2;ratioP2;P2;SDS_P1;SDS_P2;PMS_P1;PMS_P2;Temp;Humidity;BMP_temperature;BMP_pressure;BME280_temperature;BME280_humidity;BME280_pressure;Samples;Min_cycle;Max_cycle;Signal;HPM_P1;HPM_P2
2023/10/08 00:01:42;;;;;;;;;;;16.20;82.40;;;;;;4999596;28;19995;-71
2023/10/08 00:04:18;;;;;;;;;;;16.20;82.30;;;;;;5001526;28;20003;-68
2023/10/08 00:06:52;;;;;;;;;;;16.20;82.40;;;;;;5000499;28;19977;-67
2023/10/08 00:09:26;;;;;;;;;;;16.20;82.50;;;;;;4999499;28;20341;-67
2023/10/08 00:12:01;;;;;;;;;;;16.20;82.50;;;;;;4998783;28;20021;-68
2023/10/08 00:14:43;;;;;;;;;;;16.20;82.40;;;;;;5000601;28;19930;-67
2023/10/08 00:17:18;;;;;;;;;;;16.20;82.50;;;;;;5001186;28;19940;-66
2023/10/08 00:19:52;;;;;;;;;;;16.20;82.50;;;;;;4999215;28;20028;-67
2023/10/08 00:22:26;;;;;;;;;;;16.30;82.50;;;;;;5000674;28;19992;-68
2023/10/08 00:24:59;;;;;;;;;;;16.30;82.40;;;;;;5008473;28;20012;-68
2023/10/08 00:27:38;;;;;;;;;;;16.30;82.40;;;;;;4999579;28;19933;-68
2023/10/08 00:30:17;;;;;;;;;;;16.30;82.50;;;;;;4998587;28;19925;-67
2023/10/08 00:32:52;;;;;;;;;;;16.30;82.40;;;;;;4999775;28;19933;-67
2023/10/08 00:35:26;;;;;;;;;;;16.30;82.40;;;;;;5015570;28;19930;-66
2023/10/08 00:38:00;;;;;;;;;;;16.30;82.40;;;;;;5006542;28;19926;-67
2023/10/08 00:40:38;;;;;;;;;;;16.30;82.40;;;;;;5015127;28;19925;-67
2023/10/08 00:43:12;;;;;;;;;;;16.30;82.40;;;;;;4999768;28;20012;-67
2023/10/08 00:45:50;;;;;;;;;;;16.30;82.40;;;;;;5013635;28;19930;-68
2023/10/08 00:48:28;;;;;;;;;;;16.30;82.40;;;;;;4998600;28;20381;-67
2023/10/08 00:51:15;;;;;;;;;;;16.30;82.50;;;;;;5020014;28;19936;-67
2023/10/08 00:53:49;;;;;;;;;;;16.30;82.60;;;;;;5018798;28;20051;-68
2023/10/08 00:56:25;;;;;;;;;;;16.30;82.50;;;;;;5018055;28;19929;-67
2023/10/08 00:58:59;;;;;;;;;;;16.30;82.50;;;;;;5020050;28;19975;-68
2023/10/08 01:01:32;;;;;;;;;;;16.30;82.50;;;;;;5019893;28;19980;-67
2023/10/08 01:04:11;;;;;;;;;;;16.30;82.50;;;;;;5017646;28;19991;-67
2023/10/08 01:06:48;;;;;;;;;;;16.30;82.60;;;;;;5018991;28;20372;-67
2023/10/08 01:09:31;;;;;;;;;;;16.30;82.60;;;;;;5020216;28;20027;-68
2023/10/08 01:12:13;;;;;;;;;;;16.30;82.60;;;;;;5017908;28;19929;-67
2023/10/08 01:14:48;;;;;;;;;;;16.30;82.60;;;;;;5018454;28;19933;-66
2023/10/08 01:17:24;;;;;;;;;;;16.30;82.70;;;;;;5019224;28;20403;-66
2023/10/08 01:20:08;;;;;;;;;;;16.30;82.70;;;;;;5012739;28;20037;-67
2023/10/08 01:22:43;;;;;;;;;;;16.30;82.70;;;;;;5015700;28;20020;-68
2023/10/08 01:25:23;;;;;;;;;;;16.20;82.80;;;;;;5019406;28;19925;-68
2023/10/08 01:27:56;;;;;;;;;;;16.20;82.80;;;;;;4997670;28;20315;-67
2023/10/08 01:30:35;;;;;;;;;;;16.20;82.90;;;;;;4998672;28;19961;-68
2023/10/08 01:33:11;;;;;;;;;;;16.20;83.00;;;;;;5033833;28;20385;-66
2023/10/08 01:35:38;;;;;;;;;;;16.20;83.00;;;;;;5018024;28;20399;-66
2023/10/08 01:38:14;;;;;;;;;;;16.20;83.00;;;;;;5019007;28;20377;-67
2023/10/08 01:40:50;;;;;;;;;;;16.20;83.00;;;;;;5019040;28;19925;-67
2023/10/08 01:43:27;;;;;;;;;;;16.10;83.20;;;;;;5019353;28;20025;-67
2023/10/08 01:46:03;;;;;;;;;;;16.10;83.20;;;;;;5015850;28;20402;-68
2023/10/08 01:48:37;;;;;;;;;;;16.10;83.20;;;;;;5016430;28;19929;-67
2023/10/08 01:51:11;;;;;;;;;;;16.10;83.20;;;;;;5015391;28;19929;-67
2023/10/08 01:53:45;;;;;;;;;;;16.10;83.20;;;;;;5017111;28;20397;-67
2023/10/08 01:56:19;;;;;;;;;;;16.10;83.30;;;;;;5021694;28;19934;-67
2023/10/08 01:58:52;;;;;;;;;;;16.10;83.30;;;;;;5032284;28;19929;-67
2023/10/08 02:01:25;;;;;;;;;;;16.10;83.30;;;;;;5018135;28;19971;-68
2023/10/08 02:03:58;;;;;;;;;;;16.10;83.30;;;;;;4995917;28;20318;-68
2023/10/08 02:06:25;;;;;;;;;;;16.10;83.40;;;;;;4977666;28;19926;-66
2023/10/08 02:09:05;;;;;;;;;;;16.10;83.40;;;;;;5017278;28;19972;-68
2023/10/08 02:11:43;;;;;;;;;;;16.10;83.30;;;;;;5018453;28;19988;-67
2023/10/08 02:14:16;;;;;;;;;;;16.10;83.40;;;;;;5018490;28;19925;-67
2023/10/08 02:16:52;;;;;;;;;;;16.10;83.40;;;;;;5014314;28;22820;-65
2023/10/08 02:19:28;;;;;;;;;;;16.10;83.40;;;;;;5030855;28;19930;-66
2023/10/08 02:22:02;;;;;;;;;;;16.10;83.50;;;;;;4998280;28;19929;-67
2023/10/08 02:24:36;;;;;;;;;;;16.10;83.50;;;;;;4999255;28;20392;-62
2023/10/08 02:27:10;;;;;;;;;;;16.10;83.60;;;;;;4996532;28;19937;-61
2023/10/08 02:29:43;;;;;;;;;;;16.10;83.50;;;;;;4996810;28;20369;-61
2023/10/08 02:32:16;;;;;;;;;;;16.10;83.60;;;;;;5011848;28;20333;-63
2023/10/08 02:34:50;;;;;;;;;;;16.10;83.50;;;;;;4999061;28;19934;-62
2023/10/08 02:37:23;;;;;;;;;;;16.10;83.50;;;;;;4998663;28;20296;-62
2023/10/08 02:39:57;;;;;;;;;;;16.10;83.50;;;;;;4990401;28;19930;-62
2023/10/08 02:42:33;;;;;;;;;;;16.10;83.50;;;;;;5011579;28;19951;-63
2023/10/08 02:45:13;;;;;;;;;;;16.10;83.60;;;;;;5017880;28;19926;-62
2023/10/08 02:47:46;;;;;;;;;;;16.10;83.60;;;;;;4998552;28;20340;-62
2023/10/08 02:50:19;;;;;;;;;;;16.10;83.60;;;;;;5012155;28;19933;-62
2023/10/08 02:52:52;;;;;;;;;;;16.10;83.60;;;;;;4999688;28;19925;-62
2023/10/08 02:55:33;;;;;;;;;;;16.10;83.60;;;;;;5000615;28;20044;-62
2023/10/08 02:58:10;;;;;;;;;;;16.10;83.60;;;;;;4998604;28;19929;-62
2023/10/08 03:00:46;;;;;;;;;;;16.10;83.70;;;;;;5018568;28;19928;-62
2023/10/08 03:03:22;;;;;;;;;;;16.10;83.60;;;;;;5022156;28;20365;-62
2023/10/08 03:05:56;;;;;;;;;;;16.10;83.60;;;;;;5021532;28;20377;-62
2023/10/08 03:08:31;;;;;;;;;;;16.10;83.60;;;;;;5021372;28;20020;-62
2023/10/08 03:11:06;;;;;;;;;;;16.10;83.70;;;;;;5020221;28;19925;-63
2023/10/08 03:13:40;;;;;;;;;;;16.10;83.80;;;;;;5021624;28;19933;-61
2023/10/08 03:16:28;;;;;;;;;;;16.00;84.00;;;;;;5035675;28;19925;-63
2023/10/08 03:19:02;;;;;;;;;;;15.90;84.10;;;;;;4999348;28;19932;-62
2023/10/08 03:24:37;;;;;;;;;;;16.00;84.00;;;;;;5002253;28;19929;-62
2023/10/08 03:27:15;;;;;;;;;;;15.90;84.10;;;;;;5000311;28;20378;-62
2023/10/08 03:29:48;;;;;;;;;;;15.80;84.20;;;;;;4984676;28;19925;-61
2023/10/08 03:32:26;;;;;;;;;;;15.80;84.30;;;;;;5001171;28;20012;-66
2023/10/08 03:35:00;;;;;;;;;;;15.70;84.40;;;;;;4990159;28;19969;-71
2023/10/08 03:37:41;;;;;;;;;;;15.70;84.60;;;;;;5020417;28;20008;-70
2023/10/08 03:40:31;;;;;;;;;;;15.60;84.90;;;;;;5020160;28;20246;-69
2023/10/08 03:43:15;;;;;;;;;;;15.60;85.10;;;;;;5018294;28;19925;-70
2023/10/08 03:45:53;;;;;;;;;;;15.40;85.40;;;;;;5020026;28;19926;-69
2023/10/08 03:48:29;;;;;;;;;;;15.50;85.40;;;;;;5019390;28;19983;-71
2023/10/08 03:51:11;;;;;;;;;;;15.40;85.50;;;;;;5019530;28;19929;-72
2023/10/08 03:53:57;;;;;;;;;;;15.50;85.50;;;;;;5014275;28;19998;-70
2023/10/08 03:56:31;;;;;;;;;;;15.50;85.60;;;;;;5019610;28;19928;-70
2023/10/08 03:59:12;;;;;;;;;;;15.40;85.70;;;;;;5021587;28;19964;-71
2023/10/08 04:01:45;;;;;;;;;;;15.40;85.70;;;;;;5018701;28;19928;-70
2023/10/08 04:04:18;;;;;;;;;;;15.40;85.80;;;;;;5020988;28;19925;-72
2023/10/08 04:06:49;;;;;;;;;;;15.40;85.70;;;;;;5020291;28;19933;-70
2023/10/08 04:09:25;;;;;;;;;;;15.40;85.80;;;;;;5018109;28;20266;-70
2023/10/08 04:12:04;;;;;;;;;;;15.40;85.90;;;;;;5000155;28;19940;-71
2023/10/08 04:14:47;;;;;;;;;;;15.40;85.90;;;;;;5001367;28;19929;-70
2023/10/08 04:17:22;;;;;;;;;;;15.30;85.80;;;;;;5000419;28;19987;-71
2023/10/08 04:19:58;;;;;;;;;;;15.30;85.90;;;;;;5004296;28;19925;-73
2023/10/08 04:22:31;;;;;;;;;;;15.20;86.00;;;;;;5019802;28;19926;-72
2023/10/08 04:25:06;;;;;;;;;;;15.20;86.00;;;;;;5020160;28;19952;-72
2023/10/08 04:27:39;;;;;;;;;;;15.20;86.10;;;;;;5019535;28;20284;-72
2023/10/08 04:30:15;;;;;;;;;;;15.10;86.30;;;;;;5019617;28;19925;-71
2023/10/08 04:32:52;;;;;;;;;;;15.10;86.30;;;;;;5018553;28;19973;-70
2023/10/08 04:35:26;;;;;;;;;;;15.10;86.40;;;;;;5033973;28;19929;-71
2023/10/08 04:38:00;;;;;;;;;;;15.00;86.40;;;;;;5020484;28;19929;-70
2023/10/08 04:40:41;;;;;;;;;;;15.00;86.50;;;;;;5020465;28;19925;-70
2023/10/08 04:43:15;;;;;;;;;;;15.00;86.60;;;;;;5019395;28;20526;-64
2023/10/08 04:45:50;;;;;;;;;;;15.00;86.70;;;;;;5017336;28;19929;-64
2023/10/08 04:48:24;;;;;;;;;;;15.00;86.80;;;;;;5019760;28;19932;-63
2023/10/08 04:51:00;;;;;;;;;;;15.00;86.90;;;;;;5018337;28;20019;-62
2023/10/08 04:53:36;;;;;;;;;;;15.00;86.90;;;;;;5020216;28;19933;-65
2023/10/08 04:56:13;;;;;;;;;;;15.00;87.00;;;;;;5019892;28;19933;-64
2023/10/08 04:58:47;;;;;;;;;;;15.00;87.00;;;;;;5020264;28;20025;-62
2023/10/08 05:01:27;;;;;;;;;;;15.00;87.00;;;;;;5017192;28;19925;-63
2023/10/08 05:04:23;;;;;;;;;;;15.10;86.90;;;;;;5015049;28;19929;-64
2023/10/08 05:07:17;;;;;;;;;;;15.10;86.90;;;;;;5011976;28;20012;-63
2023/10/08 05:10:10;;;;;;;;;;;15.10;86.80;;;;;;5018836;28;20118;-64
2023/10/08 05:12:50;;;;;;;;;;;15.20;86.60;;;;;;5018872;28;20055;-64
2023/10/08 05:15:33;;;;;;;;;;;15.30;86.40;;;;;;5018983;28;19929;-63
2023/10/08 05:18:23;;;;;;;;;;;15.30;86.30;;;;;;5004803;28;19936;-62
2023/10/08 05:20:59;;;;;;;;;;;15.30;86.40;;;;;;5014436;28;19925;-63
2023/10/08 05:24:08;;;;;;;;;;;15.30;86.50;;;;;;5018640;28;20380;-62
2023/10/08 05:26:49;;;;;;;;;;;15.30;86.50;;;;;;5015788;28;19972;-64
2023/10/08 05:29:52;;;;;;;;;;;15.30;86.60;;;;;;5018388;28;20397;-62
2023/10/08 05:32:38;;;;;;;;;;;15.30;86.70;;;;;;5018444;28;19925;-63
2023/10/08 05:38:13;;;;;;;;;;;15.20;86.90;;;;;;4995827;28;20373;-64
2023/10/08 05:41:12;;;;;;;;;;;15.20;86.80;;;;;;5015598;28;19957;-63
2023/10/08 05:44:13;;;;;;;;;;;15.20;86.90;;;;;;5016284;28;19933;-63
2023/10/08 05:47:06;;;;;;;;;;;15.20;86.90;;;;;;5018584;28;20399;-63
2023/10/08 05:49:42;;;;;;;;;;;15.20;87.00;;;;;;5018092;28;19934;-66
2023/10/08 05:52:50;;;;;;;;;;;15.20;87.00;;;;;;5019144;28;19929;-74
2023/10/08 05:55:25;;;;;;;;;;;15.20;87.10;;;;;;5001538;28;19948;-72
2023/10/08 05:58:24;;;;;;;;;;;15.20;86.90;;;;;;4998361;28;19979;-72
2023/10/08 06:01:08;;;;;;;;;;;15.20;86.90;;;;;;5011704;28;19929;-72
2023/10/08 06:03:59;;;;;;;;;;;15.30;86.80;;;;;;5018383;28;19925;-72
2023/10/08 06:06:47;;;;;;;;;;;15.30;86.60;;;;;;5020431;28;20407;-73
2023/10/08 06:09:21;;;;;;;;;;;15.30;86.60;;;;;;5018042;28;20015;-72
2023/10/08 06:12:07;;;;;;;;;;;15.30;86.60;;;;;;5016955;28;19929;-72
2023/10/08 06:15:06;;;;;;;;;;;15.40;86.50;;;;;;5018761;28;19925;-71
2023/10/08 06:18:04;;;;;;;;;;;15.40;86.40;;;;;;5018772;28;19926;-73
2023/10/08 06:20:40;;;;;;;;;;;15.40;86.20;;;;;;5018094;28;19956;-72
2023/10/08 06:23:17;;;;;;;;;;;15.40;86.20;;;;;;5004625;28;19940;-71
2023/10/08 06:25:57;;;;;;;;;;;15.40;86.20;;;;;;4998121;28;20020;-72
2023/10/08 06:28:30;;;;;;;;;;;15.40;86.20;;;;;;5001485;28;19929;-72
2023/10/08 06:31:11;;;;;;;;;;;15.40;86.00;;;;;;5015409;28;19934;-72
2023/10/08 06:33:45;;;;;;;;;;;15.40;86.20;;;;;;5002852;28;19941;-70
2023/10/08 06:36:23;;;;;;;;;;;15.50;86.20;;;;;;5002176;28;20015;-71
2023/10/08 06:38:59;;;;;;;;;;;15.50;86.10;;;;;;5022572;28;19952;-72
2023/10/08 06:41:34;;;;;;;;;;;15.50;86.00;;;;;;5037696;28;20388;-71
2023/10/08 06:44:13;;;;;;;;;;;15.60;85.90;;;;;;5022389;28;19925;-72
2023/10/08 06:46:49;;;;;;;;;;;15.60;85.90;;;;;;5017418;28;19971;-72
2023/10/08 06:49:25;;;;;;;;;;;15.60;86.10;;;;;;5003476;28;19932;-72
2023/10/08 06:51:58;;;;;;;;;;;15.60;85.90;;;;;;5002185;28;19926;-72
2023/10/08 06:54:31;;;;;;;;;;;15.60;86.00;;;;;;5000671;28;19964;-73
2023/10/08 06:57:13;;;;;;;;;;;15.60;85.80;;;;;;5021482;28;19963;-72
2023/10/08 06:59:46;;;;;;;;;;;15.60;86.00;;;;;;5021569;28;19929;-73
2023/10/08 07:02:20;;;;;;;;;;;15.70;85.90;;;;;;5023205;28;19925;-71
2023/10/08 07:04:53;;;;;;;;;;;15.70;85.70;;;;;;5019850;28;19968;-73
2023/10/08 07:07:28;;;;;;;;;;;15.70;85.90;;;;;;5021936;28;19964;-73
2023/10/08 07:10:02;;;;;;;;;;;15.70;85.30;;;;;;5021312;28;20216;-75
2023/10/08 07:12:36;;;;;;;;;;;15.80;85.60;;;;;;5021634;28;19992;-73
2023/10/08 07:15:12;;;;;;;;;;;15.90;85.60;;;;;;5016767;28;19972;-73
2023/10/08 07:17:45;;;;;;;;;;;15.90;85.20;;;;;;5003959;28;19937;-72
2023/10/08 07:20:21;;;;;;;;;;;15.90;85.20;;;;;;5022436;28;19943;-72
2023/10/08 07:22:55;;;;;;;;;;;16.00;85.10;;;;;;5020538;28;19945;-72
2023/10/08 07:25:35;;;;;;;;;;;16.10;85.20;;;;;;5022164;28;20365;-73
2023/10/08 07:28:12;;;;;;;;;;;16.10;85.10;;;;;;5022094;28;19980;-72
2023/10/08 07:30:45;;;;;;;;;;;16.10;85.00;;;;;;5018654;28;19929;-73
2023/10/08 07:33:24;;;;;;;;;;;16.20;85.00;;;;;;5016837;28;19929;-73
2023/10/08 07:36:04;;;;;;;;;;;16.20;85.00;;;;;;5020778;28;19929;-72
2023/10/08 07:38:37;;;;;;;;;;;16.30;84.80;;;;;;5002582;28;20278;-72
2023/10/08 07:41:12;;;;;;;;;;;16.30;84.90;;;;;;5002405;28;19926;-73
2023/10/08 07:43:53;;;;;;;;;;;16.40;84.80;;;;;;4999252;28;20012;-72
2023/10/08 07:46:27;;;;;;;;;;;16.40;84.90;;;;;;5002268;28;19930;-72
2023/10/08 07:49:00;;;;;;;;;;;16.40;84.80;;;;;;5021025;28;20513;-72
2023/10/08 07:51:34;;;;;;;;;;;16.50;84.60;;;;;;5020250;28;20503;-71
2023/10/08 07:54:09;;;;;;;;;;;16.60;84.40;;;;;;5021748;28;20012;-71
2023/10/08 07:56:42;;;;;;;;;;;16.60;84.40;;;;;;5018359;28;20039;-72
2023/10/08 07:59:17;;;;;;;;;;;16.60;84.30;;;;;;5020831;28;19936;-73
2023/10/08 08:01:52;;;;;;;;;;;16.60;84.10;;;;;;5018189;28;19939;-73
2023/10/08 08:04:33;;;;;;;;;;;16.60;84.10;;;;;;5001607;28;20326;-72
2023/10/08 08:07:06;;;;;;;;;;;16.60;84.10;;;;;;5018626;28;20007;-72
2023/10/08 08:09:39;;;;;;;;;;;16.60;84.10;;;;;;5019637;28;20048;-73
2023/10/08 08:12:16;;;;;;;;;;;16.60;84.10;;;;;;5014544;28;19930;-71
2023/10/08 08:14:51;;;;;;;;;;;16.60;84.00;;;;;;4999805;28;20407;-72
2023/10/08 08:17:24;;;;;;;;;;;16.70;83.90;;;;;;5001145;28;19980;-73
2023/10/08 08:19:52;;;;;;;;;;;16.70;83.80;;;;;;5003757;28;20033;-73
2023/10/08 08:22:30;;;;;;;;;;;16.80;83.70;;;;;;5020753;28;19979;-72
2023/10/08 08:25:15;;;;;;;;;;;16.80;83.60;;;;;;5018295;28;20016;-71
2023/10/08 08:27:49;;;;;;;;;;;16.70;83.50;;;;;;5019441;28;19925;-73
2023/10/08 08:30:26;;;;;;;;;;;16.80;83.50;;;;;;5021634;28;20270;-73
2023/10/08 08:33:00;;;;;;;;;;;16.80;83.60;;;;;;5018166;28;20494;-73
2023/10/08 08:35:27;;;;;;;;;;;16.80;83.60;;;;;;5020889;28;20388;-73
2023/10/08 08:38:00;;;;;;;;;;;16.80;83.60;;;;;;4991760;28;19933;-73
2023/10/08 08:40:33;;;;;;;;;;;16.80;83.50;;;;;;5015081;28;20364;-73
2023/10/08 08:43:06;;;;;;;;;;;16.90;83.40;;;;;;5018766;28;20455;-73
2023/10/08 08:45:56;;;;;;;;;;;16.90;83.30;;;;;;5020269;28;20205;-71
2023/10/08 08:48:37;;;;;;;;;;;17.00;83.20;;;;;;5019542;28;20027;-73
2023/10/08 08:51:12;;;;;;;;;;;17.10;83.00;;;;;;5033769;28;19979;-72
2023/10/08 08:53:38;;;;;;;;;;;17.10;82.90;;;;;;5020509;28;19979;-73
2023/10/08 08:56:13;;;;;;;;;;;17.20;82.90;;;;;;5020775;28;20032;-73
2023/10/08 08:58:47;;;;;;;;;;;17.20;82.80;;;;;;5019000;28;19929;-73
2023/10/08 09:01:21;;;;;;;;;;;17.20;82.70;;;;;;5018826;28;20020;-74
2023/10/08 09:04:00;;;;;;;;;;;17.20;82.70;;;;;;5020394;28;20038;-72
2023/10/08 09:06:34;;;;;;;;;;;17.20;82.80;;;;;;5019181;28;20303;-72
2023/10/08 09:09:21;;;;;;;;;;;17.20;82.60;;;;;;4995188;28;20297;-73
2023/10/08 09:11:57;;;;;;;;;;;17.30;82.60;;;;;;5004511;28;19929;-73
2023/10/08 09:14:31;;;;;;;;;;;17.40;82.60;;;;;;5018206;28;20008;-74
2023/10/08 09:17:06;;;;;;;;;;;17.40;82.50;;;;;;5019916;28;20285;-73
2023/10/08 09:19:47;;;;;;;;;;;17.40;82.50;;;;;;5018587;28;19929;-73
2023/10/08 09:22:21;;;;;;;;;;;17.40;82.40;;;;;;5020521;28;19965;-65
2023/10/08 09:24:54;;;;;;;;;;;17.40;82.30;;;;;;5015533;28;20011;-73
2023/10/08 09:27:27;;;;;;;;;;;17.50;82.30;;;;;;4997974;28;20408;-74
2023/10/08 09:30:08;;;;;;;;;;;17.50;82.20;;;;;;5019192;28;19971;-73
2023/10/08 09:32:43;;;;;;;;;;;17.60;82.20;;;;;;5019144;28;19940;-73
2023/10/08 09:35:16;;;;;;;;;;;17.60;81.90;;;;;;5018961;28;19929;-72
2023/10/08 09:37:49;;;;;;;;;;;17.60;81.80;;;;;;5019823;28;19936;-72
2023/10/08 09:40:22;;;;;;;;;;;17.60;81.70;;;;;;5003062;28;20257;-73
2023/10/08 09:42:56;;;;;;;;;;;17.60;81.70;;;;;;5019549;28;19925;-74
2023/10/08 09:45:31;;;;;;;;;;;17.60;81.80;;;;;;5010981;28;19973;-72
2023/10/08 09:48:09;;;;;;;;;;;17.60;82.00;;;;;;4999000;28;20024;-72
2023/10/08 09:50:45;;;;;;;;;;;17.70;82.00;;;;;;5017682;28;19925;-73
2023/10/08 09:53:26;;;;;;;;;;;17.70;82.00;;;;;;5019213;28;19929;-73
2023/10/08 09:56:00;;;;;;;;;;;17.70;81.90;;;;;;5019162;28;20352;-72
2023/10/08 09:58:33;;;;;;;;;;;17.70;81.80;;;;;;5018923;28;19936;-73
2023/10/08 10:01:06;;;;;;;;;;;17.70;81.70;;;;;;5021625;28;20377;-72
2023/10/08 10:03:42;;;;;;;;;;;17.80;81.60;;;;;;5017073;28;20338;-73
2023/10/08 10:06:17;;;;;;;;;;;17.80;81.50;;;;;;5023439;28;19929;-73
2023/10/08 10:08:44;;;;;;;;;;;17.80;81.30;;;;;;5022166;28;19929;-72
2023/10/08 10:11:17;;;;;;;;;;;17.90;81.20;;;;;;5022797;28;19979;-72
2023/10/08 10:13:52;;;;;;;;;;;17.90;81.20;;;;;;5022400;28;19939;-72
2023/10/08 10:16:26;;;;;;;;;;;18.00;81.10;;;;;;5022902;28;19933;-72
2023/10/08 10:19:01;;;;;;;;;;;17.90;81.20;;;;;;5023516;28;19925;-72
2023/10/08 10:21:34;;;;;;;;;;;17.90;81.30;;;;;;5022509;28;20400;-72
2023/10/08 10:24:22;;;;;;;;;;;17.90;81.20;;;;;;5022537;28;19930;-72
2023/10/08 10:27:10;;;;;;;;;;;17.90;81.30;;;;;;5022644;28;19930;-72
2023/10/08 10:29:44;;;;;;;;;;;17.90;81.30;;;;;;5021983;28;19929;-71
2023/10/08 10:32:18;;;;;;;;;;;17.80;81.40;;;;;;5021370;28;19962;-72
2023/10/08 10:34:53;;;;;;;;;;;17.90;81.30;;;;;;5020906;28;19929;-72
2023/10/08 10:37:40;;;;;;;;;;;17.90;81.30;;;;;;5017880;28;19975;-73
2023/10/08 10:40:13;;;;;;;;;;;17.90;81.30;;;;;;5022460;28;20477;-73
2023/10/08 10:42:53;;;;;;;;;;;17.90;81.30;;;;;;5022975;28;20426;-72
2023/10/08 10:45:40;;;;;;;;;;;17.90;81.20;;;;;;5023114;28;19934;-72
2023/10/08 10:48:21;;;;;;;;;;;17.90;81.20;;;;;;5020267;28;19957;-72
2023/10/08 10:53:48;;;;;;;;;;;17.90;81.40;;;;;;5023631;28;20411;-73
2023/10/08 10:56:29;;;;;;;;;;;17.90;81.40;;;;;;5022514;28;19925;-72
2023/10/08 10:59:15;;;;;;;;;;;17.80;81.40;;;;;;5036996;28;20349;-73
2023/10/08 11:01:52;;;;;;;;;;;17.80;81.50;;;;;;5023156;28;19929;-70
2023/10/08 11:04:29;;;;;;;;;;;17.90;81.50;;;;;;5021832;28;19934;-71
2023/10/08 11:07:06;;;;;;;;;;;17.90;81.50;;;;;;5003767;28;19933;-71
2023/10/08 11:09:44;;;;;;;;;;;18.00;81.40;;;;;;4987182;28;19941;-72
2023/10/08 11:12:22;;;;;;;;;;;18.00;81.30;;;;;;5018738;28;19940;-72
2023/10/08 11:14:57;;;;;;;;;;;18.00;81.30;;;;;;5021975;28;19969;-72
2023/10/08 11:17:33;;;;;;;;;;;18.10;81.30;;;;;;5021090;28;19925;-73
2023/10/08 11:20:24;;;;;;;;;;;18.10;81.20;;;;;;5021306;28;20365;-72
2023/10/08 11:23:17;;;;;;;;;;;18.10;81.10;;;;;;5022130;28;19929;-73
2023/10/08 11:25:53;;;;;;;;;;;18.20;81.10;;;;;;5003450;28;20347;-72
2023/10/08 11:28:27;;;;;;;;;;;18.30;80.90;;;;;;5021079;28;19932;-72
2023/10/08 11:31:07;;;;;;;;;;;18.40;80.60;;;;;;5004594;28;19957;-72
2023/10/08 11:33:41;;;;;;;;;;;18.50;80.40;;;;;;5001462;28;20463;-71
2023/10/08 11:36:19;;;;;;;;;;;18.60;80.30;;;;;;5018359;28;20329;-72
2023/10/08 11:39:00;;;;;;;;;;;18.50;80.30;;;;;;5019839;28;19945;-71
2023/10/08 11:41:49;;;;;;;;;;;18.50;80.50;;;;;;5021861;28;19924;-72
2023/10/08 11:44:23;;;;;;;;;;;18.50;80.60;;;;;;5005103;28;19929;-63
2023/10/08 11:46:51;;;;;;;;;;;18.40;80.80;;;;;;5020569;28;19936;-63
2023/10/08 11:49:25;;;;;;;;;;;18.30;81.00;;;;;;5017443;28;19957;-61
2023/10/08 11:52:00;;;;;;;;;;;18.30;80.70;;;;;;5021266;28;19963;-63
2023/10/08 11:54:35;;;;;;;;;;;18.20;80.80;;;;;;5019918;28;19929;-63
2023/10/08 11:57:09;;;;;;;;;;;18.10;80.90;;;;;;5020947;28;19932;-63
2023/10/08 11:59:42;;;;;;;;;;;18.00;81.10;;;;;;5020841;28;19929;-62
2023/10/08 12:02:16;;;;;;;;;;;17.90;81.20;;;;;;5012064;28;19926;-64
2023/10/08 12:04:49;;;;;;;;;;;17.80;81.00;;;;;;5000234;28;19930;-62
2023/10/08 12:07:27;;;;;;;;;;;17.80;80.70;;;;;;4983597;28;20415;-63
2023/10/08 12:10:02;;;;;;;;;;;17.80;80.60;;;;;;5001710;28;20270;-63
2023/10/08 12:12:35;;;;;;;;;;;17.70;80.50;;;;;;4992210;28;19956;-64
2023/10/08 12:15:09;;;;;;;;;;;17.70;80.40;;;;;;4997956;28;19957;-63
2023/10/08 12:17:42;;;;;;;;;;;17.80;80.10;;;;;;4998919;28;19929;-63
2023/10/08 12:20:23;;;;;;;;;;;17.70;79.60;;;;;;4999023;28;19936;-64
2023/10/08 12:22:56;;;;;;;;;;;17.80;79.70;;;;;;4998655;28;20317;-62
2023/10/08 12:25:32;;;;;;;;;;;17.80;79.60;;;;;;5001733;28;19935;-62
2023/10/08 12:28:06;;;;;;;;;;;17.80;79.70;;;;;;5020331;28;19926;-62
2023/10/08 12:30:42;;;;;;;;;;;17.80;79.40;;;;;;5015569;28;19929;-62
2023/10/08 12:33:15;;;;;;;;;;;17.80;79.20;;;;;;5020136;28;20373;-65
2023/10/08 12:35:49;;;;;;;;;;;17.80;79.10;;;;;;5020270;28;19925;-63
2023/10/08 12:38:31;;;;;;;;;;;17.80;79.00;;;;;;5018869;28;21083;-62
2023/10/08 12:41:11;;;;;;;;;;;17.80;78.90;;;;;;5018454;28;20266;-63
2023/10/08 12:43:46;;;;;;;;;;;17.70;79.20;;;;;;5018684;28;19932;-63
2023/10/08 12:46:23;;;;;;;;;;;17.60;78.90;;;;;;5011666;28;19973;-64
2023/10/08 12:48:56;;;;;;;;;;;17.60;78.80;;;;;;5016802;28;19979;-63
2023/10/08 12:51:32;;;;;;;;;;;17.60;78.50;;;;;;5019337;28;19932;-62
2023/10/08 12:54:03;;;;;;;;;;;17.60;78.30;;;;;;5020578;28;19926;-72
2023/10/08 12:56:44;;;;;;;;;;;17.60;78.20;;;;;;5017699;28;19937;-72
2023/10/08 12:59:21;;;;;;;;;;;17.60;78.20;;;;;;5019876;28;19933;-71
2023/10/08 13:01:54;;;;;;;;;;;17.70;78.00;;;;;;5020049;28;20498;-72
2023/10/08 13:04:27;;;;;;;;;;;17.70;77.90;;;;;;5017819;28;19933;-72
2023/10/08 13:07:02;;;;;;;;;;;17.70;77.70;;;;;;5019726;28;19926;-71
2023/10/08 13:09:30;;;;;;;;;;;17.80;77.60;;;;;;5018384;28;19980;-72
2023/10/08 13:12:05;;;;;;;;;;;17.90;77.40;;;;;;5020450;28;19952;-71
2023/10/08 13:14:38;;;;;;;;;;;17.90;77.30;;;;;;5013199;28;19925;-71
2023/10/08 13:17:11;;;;;;;;;;;18.00;77.50;;;;;;5003712;28;19937;-71
2023/10/08 13:19:45;;;;;;;;;;;17.90;77.00;;;;;;4990278;28;20012;-72
2023/10/08 13:22:19;;;;;;;;;;;17.90;77.10;;;;;;5012846;28;19937;-71
2023/10/08 13:24:52;;;;;;;;;;;17.80;77.20;;;;;;5019897;28;19929;-71
2023/10/08 13:27:27;;;;;;;;;;;17.80;77.30;;;;;;5018009;28;20395;-71
2023/10/08 13:30:05;;;;;;;;;;;17.80;77.40;;;;;;5013616;28;19968;-71
2023/10/08 13:32:38;;;;;;;;;;;17.70;77.00;;;;;;4998302;28;19926;-72
2023/10/08 13:35:12;;;;;;;;;;;17.70;76.70;;;;;;4998620;28;19925;-72
2023/10/08 13:37:39;;;;;;;;;;;17.70;76.80;;;;;;4996743;28;19929;-71
2023/10/08 13:40:15;;;;;;;;;;;17.70;76.90;;;;;;5000939;28;19928;-71
2023/10/08 13:42:52;;;;;;;;;;;17.80;76.50;;;;;;4998965;28;19934;-71
2023/10/08 13:45:37;;;;;;;;;;;17.80;76.50;;;;;;5001954;28;20403;-71
2023/10/08 13:48:24;;;;;;;;;;;17.80;76.60;;;;;;4984108;28;19999;-72
2023/10/08 13:51:03;;;;;;;;;;;17.80;76.90;;;;;;5030781;28;19929;-71
2023/10/08 13:53:36;;;;;;;;;;;17.80;76.80;;;;;;5019909;28;19936;-71
2023/10/08 13:56:11;;;;;;;;;;;17.80;76.50;;;;;;5017949;28;20521;-71
2023/10/08 13:58:49;;;;;;;;;;;17.70;76.60;;;;;;5018555;28;19932;-71
2023/10/08 14:01:22;;;;;;;;;;;17.80;76.70;;;;;;5018373;28;19929;-72
2023/10/08 14:04:04;;;;;;;;;;;17.80;76.60;;;;;;5019508;28;19928;-72
2023/10/08 14:06:40;;;;;;;;;;;17.90;76.40;;;;;;5017952;28;19929;-72
2023/10/08 14:09:20;;;;;;;;;;;17.90;76.20;;;;;;5019172;28;20460;-72
2023/10/08 14:11:55;;;;;;;;;;;17.90;76.60;;;;;;5018618;28;19926;-72
2023/10/08 14:14:30;;;;;;;;;;;17.90;76.30;;;;;;5001105;28;19934;-72
2023/10/08 14:17:05;;;;;;;;;;;17.80;75.90;;;;;;4989288;28;20345;-72
2023/10/08 14:19:45;;;;;;;;;;;17.80;76.20;;;;;;5019610;28;19935;-72
2023/10/08 14:22:21;;;;;;;;;;;17.70;76.30;;;;;;5018155;28;19929;-72
2023/10/08 14:24:59;;;;;;;;;;;17.70;76.50;;;;;;5001093;28;19930;-71
2023/10/08 14:27:32;;;;;;;;;;;17.70;76.70;;;;;;4998578;28;19932;-73
2023/10/08 14:30:15;;;;;;;;;;;17.70;76.50;;;;;;4999631;28;19927;-72
2023/10/08 14:32:48;;;;;;;;;;;17.60;76.60;;;;;;4996629;28;20014;-72
2023/10/08 14:43:54;;;;;;;;;;;17.50;77.20;;;;;;5018415;28;19972;-71
2023/10/08 14:46:32;;;;;;;;;;;17.50;77.30;;;;;;5018314;28;19934;-73
2023/10/08 14:49:09;;;;;;;;;;;17.50;77.00;;;;;;5019720;28;19929;-72
2023/10/08 14:51:43;;;;;;;;;;;17.50;77.20;;;;;;5022340;28;19956;-71
2023/10/08 14:54:16;;;;;;;;;;;17.50;77.40;;;;;;5021539;28;19936;-71
2023/10/08 14:56:49;;;;;;;;;;;17.50;77.20;;;;;;5020141;28;19979;-72
2023/10/08 14:59:17;;;;;;;;;;;17.40;77.40;;;;;;5020660;28;19933;-72
2023/10/08 15:01:52;;;;;;;;;;;17.40;77.60;;;;;;5037831;28;20316;-71
2023/10/08 15:04:28;;;;;;;;;;;17.40;77.80;;;;;;5022827;28;19952;-71
2023/10/08 15:07:01;;;;;;;;;;;17.40;78.10;;;;;;5021716;28;19996;-71
2023/10/08 15:09:28;;;;;;;;;;;17.40;78.10;;;;;;5023152;28;19933;-71
2023/10/08 15:12:01;;;;;;;;;;;17.30;78.20;;;;;;5021431;28;20016;-72
2023/10/08 15:14:34;;;;;;;;;;;17.40;78.00;;;;;;5020820;28;19929;-69
2023/10/08 15:17:09;;;;;;;;;;;17.40;78.10;;;;;;5001626;28;20341;-69
2023/10/08 15:19:42;;;;;;;;;;;17.30;78.00;;;;;;5001690;28;19926;-69
2023/10/08 15:22:15;;;;;;;;;;;17.30;78.20;;;;;;5002310;28;19953;-69
2023/10/08 15:24:48;;;;;;;;;;;17.20;78.50;;;;;;5000160;28;20419;-68
2023/10/08 15:27:21;;;;;;;;;;;17.20;78.40;;;;;;5000666;28;20340;-68
2023/10/08 15:29:54;;;;;;;;;;;17.20;78.30;;;;;;4983946;28;20009;-70